sensor_id;sensor_type;location;lat;lon;timestamp;temperature;humidity
22923;DHT22;11627;51.322;22.816;2023-04-24T00:00:31;9.90;99.90
22923;DHT22;11627;51.322;22.816;2023-04-24T00:02:57;9.90;99.90
22923;DHT22;11627;51.322;22.816;2023-04-24T00:05:23;9.90;99.90
22923;DHT22;11627;51.322;22.816;2023-04-24T00:07:49;9.90;99.90
22923;DHT22;11627;51.322;22.816;2023-04-24T00:10:18;9.90;99.90
22923;DHT22;11627;51.322;22.816;2023-04-24T00:12:44;10.00;99.90
22923;DHT22;11627;51.322;22.816;2023-04-24T00:15:10;9.90;99.90
22923;DHT22;11627;51.322;22.816;2023-04-24T00:17:36;9.90;99.90
22923;DHT22;11627;51.322;22.816;2023-04-24T00:20:02;9.90;99.90
22923;DHT22;11627;51.322;22.816;2023-04-24T00:22:30;9.90;99.90
22923;DHT22;11627;51.322;22.816;2023-04-24T00:24:56;9.90;99.90
22923;DHT22;11627;51.322;22.816;2023-04-24T00:27:23;9.80;1.00
22923;DHT22;11627;51.322;22.816;2023-04-24T00:29:50;9.80;1.00
22923;DHT22;11627;51.322;22.816;2023-04-24T00:32:15;9.80;1.00
22923;DHT22;11627;51.322;22.816;2023-04-24T00:34:43;9.70;1.00
22923;DHT22;11627;51.322;22.816;2023-04-24T00:37:10;9.80;1.00
22923;DHT22;11627;51.322;22.816;2023-04-24T00:39:37;9.80;1.00
22923;DHT22;11627;51.322;22.816;2023-04-24T00:42:02;9.80;1.00
22923;DHT22;11627;51.322;22.816;2023-04-24T00:44:29;9.80;1.00
22923;DHT22;11627;51.322;22.816;2023-04-24T00:46:55;9.80;1.00
22923;DHT22;11627;51.322;22.816;2023-04-24T00:49:22;9.80;1.00
22923;DHT22;11627;51.322;22.816;2023-04-24T00:51:48;9.80;1.00
22923;DHT22;11627;51.322;22.816;2023-04-24T00:54:15;9.70;1.00
22923;DHT22;11627;51.322;22.816;2023-04-24T00:56:42;9.80;1.00
22923;DHT22;11627;51.322;22.816;2023-04-24T00:59:11;9.80;1.00
22923;DHT22;11627;51.322;22.816;2023-04-24T01:01:37;9.80;1.00
22923;DHT22;11627;51.322;22.816;2023-04-24T01:04:09;9.80;99.90
22923;DHT22;11627;51.322;22.816;2023-04-24T01:06:39;9.80;99.90
22923;DHT22;11627;51.322;22.816;2023-04-24T01:09:06;9.80;99.90
22923;DHT22;11627;51.322;22.816;2023-04-24T01:11:34;9.80;99.90
22923;DHT22;11627;51.322;22.816;2023-04-24T01:13:59;9.80;99.90
22923;DHT22;11627;51.322;22.816;2023-04-24T01:16:25;9.80;99.90
22923;DHT22;11627;51.322;22.816;2023-04-24T01:18:51;9.80;99.90
22923;DHT22;11627;51.322;22.816;2023-04-24T01:21:18;9.80;99.90
22923;DHT22;11627;51.322;22.816;2023-04-24T01:23:45;9.80;99.90
22923;DHT22;11627;51.322;22.816;2023-04-24T01:26:12;9.80;99.90
22923;DHT22;11627;51.322;22.816;2023-04-24T01:28:39;9.70;1.00
22923;DHT22;11627;51.322;22.816;2023-04-24T01:31:05;9.60;1.00
22923;DHT22;11627;51.322;22.816;2023-04-24T01:33:31;9.50;1.00
22923;DHT22;11627;51.322;22.816;2023-04-24T01:35:57;9.50;1.00
22923;DHT22;11627;51.322;22.816;2023-04-24T01:38:23;9.50;1.00
22923;DHT22;11627;51.322;22.816;2023-04-24T01:40:49;9.40;1.00
22923;DHT22;11627;51.322;22.816;2023-04-24T01:43:16;9.40;1.00
22923;DHT22;11627;51.322;22.816;2023-04-24T01:45:42;9.40;1.00
22923;DHT22;11627;51.322;22.816;2023-04-24T01:48:09;9.30;1.00
22923;DHT22;11627;51.322;22.816;2023-04-24T01:50:35;9.30;1.00
22923;DHT22;11627;51.322;22.816;2023-04-24T01:53:01;9.40;1.00
22923;DHT22;11627;51.322;22.816;2023-04-24T01:55:27;9.30;1.00
22923;DHT22;11627;51.322;22.816;2023-04-24T01:57:55;9.30;1.00
22923;DHT22;11627;51.322;22.816;2023-04-24T02:00:21;9.30;1.00
22923;DHT22;11627;51.322;22.816;2023-04-24T02:02:46;9.30;1.00
22923;DHT22;11627;51.322;22.816;2023-04-24T02:05:12;9.30;1.00
22923;DHT22;11627;51.322;22.816;2023-04-24T02:07:38;9.30;1.00
22923;DHT22;11627;51.322;22.816;2023-04-24T02:10:04;9.30;1.00
22923;DHT22;11627;51.322;22.816;2023-04-24T02:12:31;9.30;1.00
22923;DHT22;11627;51.322;22.816;2023-04-24T02:14:57;9.30;1.00
22923;DHT22;11627;51.322;22.816;2023-04-24T02:17:23;9.20;1.00
22923;DHT22;11627;51.322;22.816;2023-04-24T02:19:48;9.20;1.00
22923;DHT22;11627;51.322;22.816;2023-04-24T02:22:14;9.20;1.00
22923;DHT22;11627;51.322;22.816;2023-04-24T02:24:41;9.10;1.00
22923;DHT22;11627;51.322;22.816;2023-04-24T02:27:08;9.10;1.00
22923;DHT22;11627;51.322;22.816;2023-04-24T02:29:33;9.10;1.00
22923;DHT22;11627;51.322;22.816;2023-04-24T02:31:59;9.10;1.00
22923;DHT22;11627;51.322;22.816;2023-04-24T02:34:25;9.00;1.00
22923;DHT22;11627;51.322;22.816;2023-04-24T02:36:51;9.00;1.00
22923;DHT22;11627;51.322;22.816;2023-04-24T02:39:19;8.90;1.00
22923;DHT22;11627;51.322;22.816;2023-04-24T02:41:45;8.90;1.00
22923;DHT22;11627;51.322;22.816;2023-04-24T02:44:12;8.90;1.00
22923;DHT22;11627;51.322;22.816;2023-04-24T02:46:38;8.90;1.00
22923;DHT22;11627;51.322;22.816;2023-04-24T02:49:07;8.90;1.00
22923;DHT22;11627;51.322;22.816;2023-04-24T02:51:32;8.80;1.00
22923;DHT22;11627;51.322;22.816;2023-04-24T02:53:58;8.80;1.00
22923;DHT22;11627;51.322;22.816;2023-04-24T02:56:24;8.90;1.00
22923;DHT22;11627;51.322;22.816;2023-04-24T02:58:49;8.80;1.00
22923;DHT22;11627;51.322;22.816;2023-04-24T03:01:15;8.80;1.00
22923;DHT22;11627;51.322;22.816;2023-04-24T03:03:41;8.80;1.00
22923;DHT22;11627;51.322;22.816;2023-04-24T03:06:06;8.70;1.00
22923;DHT22;11627;51.322;22.816;2023-04-24T03:08:33;8.70;1.00
22923;DHT22;11627;51.322;22.816;2023-04-24T03:11:00;8.80;1.00
22923;DHT22;11627;51.322;22.816;2023-04-24T03:13:26;8.70;1.00
22923;DHT22;11627;51.322;22.816;2023-04-24T03:15:52;8.80;1.00
22923;DHT22;11627;51.322;22.816;2023-04-24T03:18:19;8.80;1.00
22923;DHT22;11627;51.322;22.816;2023-04-24T03:20:46;8.80;1.00
22923;DHT22;11627;51.322;22.816;2023-04-24T03:23:12;8.70;1.00
22923;DHT22;11627;51.322;22.816;2023-04-24T03:25:38;8.80;1.00
22923;DHT22;11627;51.322;22.816;2023-04-24T03:28:04;8.70;1.00
22923;DHT22;11627;51.322;22.816;2023-04-24T03:30:30;8.70;1.00
22923;DHT22;11627;51.322;22.816;2023-04-24T03:32:55;8.70;1.00
22923;DHT22;11627;51.322;22.816;2023-04-24T03:35:22;8.70;1.00
22923;DHT22;11627;51.322;22.816;2023-04-24T03:37:48;8.70;1.00
22923;DHT22;11627;51.322;22.816;2023-04-24T03:40:14;8.70;1.00
22923;DHT22;11627;51.322;22.816;2023-04-24T03:42:40;8.80;1.00
22923;DHT22;11627;51.322;22.816;2023-04-24T03:45:06;8.90;1.00
22923;DHT22;11627;51.322;22.816;2023-04-24T03:47:32;8.90;1.00
22923;DHT22;11627;51.322;22.816;2023-04-24T03:49:59;8.90;1.00
22923;DHT22;11627;51.322;22.816;2023-04-24T03:52:27;9.00;1.00
22923;DHT22;11627;51.322;22.816;2023-04-24T03:54:54;9.00;1.00
22923;DHT22;11627;51.322;22.816;2023-04-24T03:57:22;9.00;1.00
22923;DHT22;11627;51.322;22.816;2023-04-24T03:59:47;9.10;1.00
22923;DHT22;11627;51.322;22.816;2023-04-24T04:02:13;9.20;1.00
22923;DHT22;11627;51.322;22.816;2023-04-24T04:04:39;9.30;1.00
22923;DHT22;11627;51.322;22.816;2023-04-24T04:07:04;9.30;1.00
22923;DHT22;11627;51.322;22.816;2023-04-24T04:09:31;9.40;1.00
22923;DHT22;11627;51.322;22.816;2023-04-24T04:12:00;9.40;1.00
22923;DHT22;11627;51.322;22.816;2023-04-24T04:14:26;9.50;1.00
22923;DHT22;11627;51.322;22.816;2023-04-24T04:16:52;9.50;1.00
22923;DHT22;11627;51.322;22.816;2023-04-24T04:19:18;9.60;1.00
22923;DHT22;11627;51.322;22.816;2023-04-24T04:21:43;9.60;1.00
22923;DHT22;11627;51.322;22.816;2023-04-24T04:24:12;9.60;1.00
22923;DHT22;11627;51.322;22.816;2023-04-24T04:26:40;9.60;1.00
22923;DHT22;11627;51.322;22.816;2023-04-24T04:29:07;9.70;1.00
22923;DHT22;11627;51.322;22.816;2023-04-24T04:31:33;9.70;1.00
22923;DHT22;11627;51.322;22.816;2023-04-24T04:33:59;9.70;1.00
22923;DHT22;11627;51.322;22.816;2023-04-24T04:36:26;9.70;1.00
22923;DHT22;11627;51.322;22.816;2023-04-24T04:38:54;9.70;1.00
22923;DHT22;11627;51.322;22.816;2023-04-24T04:41:21;9.80;1.00
22923;DHT22;11627;51.322;22.816;2023-04-24T04:43:47;9.80;1.00
22923;DHT22;11627;51.322;22.816;2023-04-24T04:46:15;9.80;1.00
22923;DHT22;11627;51.322;22.816;2023-04-24T04:48:41;9.80;1.00
22923;DHT22;11627;51.322;22.816;2023-04-24T04:51:07;9.80;1.00
22923;DHT22;11627;51.322;22.816;2023-04-24T04:53:33;9.80;1.00
22923;DHT22;11627;51.322;22.816;2023-04-24T04:55:58;9.80;1.00
22923;DHT22;11627;51.322;22.816;2023-04-24T04:58:26;9.90;1.00
22923;DHT22;11627;51.322;22.816;2023-04-24T05:00:53;10.00;1.00
22923;DHT22;11627;51.322;22.816;2023-04-24T05:03:20;10.00;1.00
22923;DHT22;11627;51.322;22.816;2023-04-24T05:05:46;10.00;1.00
22923;DHT22;11627;51.322;22.816;2023-04-24T05:08:11;10.10;1.00
22923;DHT22;11627;51.322;22.816;2023-04-24T05:10:38;10.10;1.00
22923;DHT22;11627;51.322;22.816;2023-04-24T05:13:04;10.20;1.00
22923;DHT22;11627;51.322;22.816;2023-04-24T05:15:30;10.20;1.00
22923;DHT22;11627;51.322;22.816;2023-04-24T05:17:56;10.30;1.00
22923;DHT22;11627;51.322;22.816;2023-04-24T05:20:22;10.40;1.00
22923;DHT22;11627;51.322;22.816;2023-04-24T05:22:47;10.60;1.00
22923;DHT22;11627;51.322;22.816;2023-04-24T05:25:13;10.80;1.00
22923;DHT22;11627;51.322;22.816;2023-04-24T05:27:39;11.00;1.00
22923;DHT22;11627;51.322;22.816;2023-04-24T05:30:06;10.90;1.00
22923;DHT22;11627;51.322;22.816;2023-04-24T05:32:33;11.00;1.00
22923;DHT22;11627;51.322;22.816;2023-04-24T05:34:59;11.10;1.00
22923;DHT22;11627;51.322;22.816;2023-04-24T05:37:24;11.20;1.00
22923;DHT22;11627;51.322;22.816;2023-04-24T05:39:51;11.40;1.00
22923;DHT22;11627;51.322;22.816;2023-04-24T05:42:16;11.50;1.00
22923;DHT22;11627;51.322;22.816;2023-04-24T05:44:42;11.60;1.00
22923;DHT22;11627;51.322;22.816;2023-04-24T05:47:09;11.70;1.00
22923;DHT22;11627;51.322;22.816;2023-04-24T05:49:36;11.80;1.00
22923;DHT22;11627;51.322;22.816;2023-04-24T05:52:02;11.80;1.00
22923;DHT22;11627;51.322;22.816;2023-04-24T05:54:29;11.80;1.00
22923;DHT22;11627;51.322;22.816;2023-04-24T05:56:55;11.70;1.00
22923;DHT22;11627;51.322;22.816;2023-04-24T05:59:21;11.80;1.00
22923;DHT22;11627;51.322;22.816;2023-04-24T06:01:47;11.90;1.00
22923;DHT22;11627;51.322;22.816;2023-04-24T06:04:14;12.00;99.90
22923;DHT22;11627;51.322;22.816;2023-04-24T06:06:40;12.10;1.00
22923;DHT22;11627;51.322;22.816;2023-04-24T06:09:05;12.20;99.90
22923;DHT22;11627;51.322;22.816;2023-04-24T06:11:32;12.30;99.90
22923;DHT22;11627;51.322;22.816;2023-04-24T06:13:57;12.40;99.90
22923;DHT22;11627;51.322;22.816;2023-04-24T06:16:23;12.50;99.90
22923;DHT22;11627;51.322;22.816;2023-04-24T06:18:49;12.70;99.90
22923;DHT22;11627;51.322;22.816;2023-04-24T06:21:16;12.80;1.00
22923;DHT22;11627;51.322;22.816;2023-04-24T06:23:42;12.80;1.00
22923;DHT22;11627;51.322;22.816;2023-04-24T06:26:07;12.90;1.00
22923;DHT22;11627;51.322;22.816;2023-04-24T06:28:33;13.10;99.90
22923;DHT22;11627;51.322;22.816;2023-04-24T06:31:00;13.20;1.00
22923;DHT22;11627;51.322;22.816;2023-04-24T06:33:25;13.30;1.00
22923;DHT22;11627;51.322;22.816;2023-04-24T06:35:52;13.40;1.00
22923;DHT22;11627;51.322;22.816;2023-04-24T06:38:21;13.50;1.00
22923;DHT22;11627;51.322;22.816;2023-04-24T06:40:46;13.60;1.00
22923;DHT22;11627;51.322;22.816;2023-04-24T06:43:12;13.70;1.00
22923;DHT22;11627;51.322;22.816;2023-04-24T06:45:38;13.80;1.00
22923;DHT22;11627;51.322;22.816;2023-04-24T06:48:05;13.90;1.00
22923;DHT22;11627;51.322;22.816;2023-04-24T06:50:30;14.00;1.00
22923;DHT22;11627;51.322;22.816;2023-04-24T06:52:57;14.10;1.00
22923;DHT22;11627;51.322;22.816;2023-04-24T06:55:23;14.30;1.00
22923;DHT22;11627;51.322;22.816;2023-04-24T06:57:49;14.40;1.00
22923;DHT22;11627;51.322;22.816;2023-04-24T07:00:15;14.40;53.50
22923;DHT22;11627;51.322;22.816;2023-04-24T07:02:42;14.50;80.30
22923;DHT22;11627;51.322;22.816;2023-04-24T07:05:12;14.50;90.00
22923;DHT22;11627;51.322;22.816;2023-04-24T07:07:38;14.60;83.80
22923;DHT22;11627;51.322;22.816;2023-04-24T07:10:06;14.70;82.60
22923;DHT22;11627;51.322;22.816;2023-04-24T07:12:32;14.80;83.10
22923;DHT22;11627;51.322;22.816;2023-04-24T07:14:58;14.90;80.30
22923;DHT22;11627;51.322;22.816;2023-04-24T07:17:24;15.00;81.70
22923;DHT22;11627;51.322;22.816;2023-04-24T07:19:49;15.10;86.80
22923;DHT22;11627;51.322;22.816;2023-04-24T07:22:15;15.20;86.90
22923;DHT22;11627;51.322;22.816;2023-04-24T07:24:43;15.30;85.70
22923;DHT22;11627;51.322;22.816;2023-04-24T07:27:09;15.40;89.60
22923;DHT22;11627;51.322;22.816;2023-04-24T07:29:35;15.60;86.70
22923;DHT22;11627;51.322;22.816;2023-04-24T07:32:02;15.70;87.30
22923;DHT22;11627;51.322;22.816;2023-04-24T07:34:29;15.90;87.50
22923;DHT22;11627;51.322;22.816;2023-04-24T07:36:55;15.90;58.30
22923;DHT22;11627;51.322;22.816;2023-04-24T07:39:21;15.90;50.60
22923;DHT22;11627;51.322;22.816;2023-04-24T07:41:47;16.00;35.60
22923;DHT22;11627;51.322;22.816;2023-04-24T07:44:12;16.10;77.90
22923;DHT22;11627;51.322;22.816;2023-04-24T07:46:38;16.10;49.90
22923;DHT22;11627;51.322;22.816;2023-04-24T07:49:04;16.20;45.30
22923;DHT22;11627;51.322;22.816;2023-04-24T07:51:32;16.30;56.00
22923;DHT22;11627;51.322;22.816;2023-04-24T07:54:05;16.30;42.40
22923;DHT22;11627;51.322;22.816;2023-04-24T07:56:32;16.50;45.10
22923;DHT22;11627;51.322;22.816;2023-04-24T07:58:59;16.50;39.10
22923;DHT22;11627;51.322;22.816;2023-04-24T08:01:27;16.60;22.70
22923;DHT22;11627;51.322;22.816;2023-04-24T08:03:52;16.70;23.30
22923;DHT22;11627;51.322;22.816;2023-04-24T08:06:18;16.80;24.60
22923;DHT22;11627;51.322;22.816;2023-04-24T08:08:44;16.80;20.90
22923;DHT22;11627;51.322;22.816;2023-04-24T08:11:10;16.90;19.90
22923;DHT22;11627;51.322;22.816;2023-04-24T08:13:35;17.00;18.30
22923;DHT22;11627;51.322;22.816;2023-04-24T08:16:01;17.00;33.30
22923;DHT22;11627;51.322;22.816;2023-04-24T08:18:28;17.10;34.00
22923;DHT22;11627;51.322;22.816;2023-04-24T08:20:54;17.20;39.60
22923;DHT22;11627;51.322;22.816;2023-04-24T08:23:21;17.30;29.50
22923;DHT22;11627;51.322;22.816;2023-04-24T08:25:48;17.40;31.40
22923;DHT22;11627;51.322;22.816;2023-04-24T08:28:14;17.40;26.60
22923;DHT22;11627;51.322;22.816;2023-04-24T08:30:46;17.40;22.70
22923;DHT22;11627;51.322;22.816;2023-04-24T08:33:14;17.50;15.90
22923;DHT22;11627;51.322;22.816;2023-04-24T08:35:41;17.60;26.10
22923;DHT22;11627;51.322;22.816;2023-04-24T08:38:07;17.60;26.70
22923;DHT22;11627;51.322;22.816;2023-04-24T08:40:34;17.70;22.70
22923;DHT22;11627;51.322;22.816;2023-04-24T08:43:01;17.80;24.20
22923;DHT22;11627;51.322;22.816;2023-04-24T08:45:28;17.90;20.90
22923;DHT22;11627;51.322;22.816;2023-04-24T08:47:54;18.00;20.90
22923;DHT22;11627;51.322;22.816;2023-04-24T08:50:22;18.00;19.20
22923;DHT22;11627;51.322;22.816;2023-04-24T08:52:51;18.10;20.30
22923;DHT22;11627;51.322;22.816;2023-04-24T08:55:19;18.20;18.70
22923;DHT22;11627;51.322;22.816;2023-04-24T08:57:52;18.20;15.60
22923;DHT22;11627;51.322;22.816;2023-04-24T09:00:20;18.20;17.80
22923;DHT22;11627;51.322;22.816;2023-04-24T09:02:49;18.30;29.80
22923;DHT22;11627;51.322;22.816;2023-04-24T09:05:17;18.30;29.60
22923;DHT22;11627;51.322;22.816;2023-04-24T09:07:48;18.40;33.50
22923;DHT22;11627;51.322;22.816;2023-04-24T09:10:15;18.50;35.40
22923;DHT22;11627;51.322;22.816;2023-04-24T09:12:41;18.50;7.60
22923;DHT22;11627;51.322;22.816;2023-04-24T09:15:08;18.70;1.00
22923;DHT22;11627;51.322;22.816;2023-04-24T09:17:34;18.80;20.40
22923;DHT22;11627;51.322;22.816;2023-04-24T09:20:01;18.80;8.30
22923;DHT22;11627;51.322;22.816;2023-04-24T09:22:30;18.90;10.40
22923;DHT22;11627;51.322;22.816;2023-04-24T09:25:07;18.90;15.70
22923;DHT22;11627;51.322;22.816;2023-04-24T09:27:35;19.10;15.80
22923;DHT22;11627;51.322;22.816;2023-04-24T09:30:04;19.20;30.30
22923;DHT22;11627;51.322;22.816;2023-04-24T09:32:30;19.30;29.20
22923;DHT22;11627;51.322;22.816;2023-04-24T09:37:57;19.40;29.20
22923;DHT22;11627;51.322;22.816;2023-04-24T09:40:23;19.60;27.00
22923;DHT22;11627;51.322;22.816;2023-04-24T09:42:55;19.60;27.50
22923;DHT22;11627;51.322;22.816;2023-04-24T09:45:43;19.70;31.20
22923;DHT22;11627;51.322;22.816;2023-04-24T09:48:10;19.70;23.80
22923;DHT22;11627;51.322;22.816;2023-04-24T09:50:36;19.70;19.90
22923;DHT22;11627;51.322;22.816;2023-04-24T09:53:04;19.70;18.10
22923;DHT22;11627;51.322;22.816;2023-04-24T09:55:31;19.80;21.90
22923;DHT22;11627;51.322;22.816;2023-04-24T09:58:01;19.80;25.10
22923;DHT22;11627;51.322;22.816;2023-04-24T10:00:32;19.90;26.30
22923;DHT22;11627;51.322;22.816;2023-04-24T10:02:59;20.00;25.70
22923;DHT22;11627;51.322;22.816;2023-04-24T10:05:31;20.10;23.40
22923;DHT22;11627;51.322;22.816;2023-04-24T10:08:08;20.20;24.90
22923;DHT22;11627;51.322;22.816;2023-04-24T10:10:38;20.10;27.60
22923;DHT22;11627;51.322;22.816;2023-04-24T10:13:04;20.30;30.60
22923;DHT22;11627;51.322;22.816;2023-04-24T10:15:32;20.30;23.60
22923;DHT22;11627;51.322;22.816;2023-04-24T10:17:59;20.40;29.50
22923;DHT22;11627;51.322;22.816;2023-04-24T10:20:28;20.40;38.90
22923;DHT22;11627;51.322;22.816;2023-04-24T10:23:00;20.40;43.20
22923;DHT22;11627;51.322;22.816;2023-04-24T10:25:28;20.50;48.00
22923;DHT22;11627;51.322;22.816;2023-04-24T10:27:56;20.50;49.50
22923;DHT22;11627;51.322;22.816;2023-04-24T10:30:26;20.60;46.60
22923;DHT22;11627;51.322;22.816;2023-04-24T10:32:54;20.70;54.80
22923;DHT22;11627;51.322;22.816;2023-04-24T10:35:20;20.60;43.00
22923;DHT22;11627;51.322;22.816;2023-04-24T10:37:58;20.60;43.70
22923;DHT22;11627;51.322;22.816;2023-04-24T10:40:32;20.70;45.90
22923;DHT22;11627;51.322;22.816;2023-04-24T10:43:13;20.80;44.30
22923;DHT22;11627;51.322;22.816;2023-04-24T10:46:03;21.00;42.20
22923;DHT22;11627;51.322;22.816;2023-04-24T10:48:31;21.10;43.40
22923;DHT22;11627;51.322;22.816;2023-04-24T10:50:59;21.10;40.60
22923;DHT22;11627;51.322;22.816;2023-04-24T10:53:28;21.20;40.90
22923;DHT22;11627;51.322;22.816;2023-04-24T10:56:09;21.20;43.30
22923;DHT22;11627;51.322;22.816;2023-04-24T10:58:43;21.20;41.90
22923;DHT22;11627;51.322;22.816;2023-04-24T11:01:31;21.20;42.70
22923;DHT22;11627;51.322;22.816;2023-04-24T11:04:02;21.30;46.30
22923;DHT22;11627;51.322;22.816;2023-04-24T11:06:33;21.40;40.80
22923;DHT22;11627;51.322;22.816;2023-04-24T11:09:08;21.40;30.90
22923;DHT22;11627;51.322;22.816;2023-04-24T11:11:36;21.60;31.10
22923;DHT22;11627;51.322;22.816;2023-04-24T11:14:07;21.70;48.00
22923;DHT22;11627;51.322;22.816;2023-04-24T11:16:54;21.70;47.00
22923;DHT22;11627;51.322;22.816;2023-04-24T11:19:25;21.50;43.70
22923;DHT22;11627;51.322;22.816;2023-04-24T11:21:56;21.10;44.00
22923;DHT22;11627;51.322;22.816;2023-04-24T11:27:18;21.00;43.30
22923;DHT22;11627;51.322;22.816;2023-04-24T11:30:02;21.20;44.80
22923;DHT22;11627;51.322;22.816;2023-04-24T11:32:50;21.40;48.50
22923;DHT22;11627;51.322;22.816;2023-04-24T11:35:21;21.60;46.60
22923;DHT22;11627;51.322;22.816;2023-04-24T11:37:53;21.70;43.90
22923;DHT22;11627;51.322;22.816;2023-04-24T11:40:25;21.60;45.20
22923;DHT22;11627;51.322;22.816;2023-04-24T11:42:53;21.40;47.50
22923;DHT22;11627;51.322;22.816;2023-04-24T11:47:50;21.50;42.30
22923;DHT22;11627;51.322;22.816;2023-04-24T11:50:18;21.60;40.60
22923;DHT22;11627;51.322;22.816;2023-04-24T11:52:47;21.60;44.40
22923;DHT22;11627;51.322;22.816;2023-04-24T11:57:59;21.90;44.70
22923;DHT22;11627;51.322;22.816;2023-04-24T12:00:31;22.10;43.50
22923;DHT22;11627;51.322;22.816;2023-04-24T12:03:11;22.00;41.90
22923;DHT22;11627;51.322;22.816;2023-04-24T12:05:39;22.00;38.60
22923;DHT22;11627;51.322;22.816;2023-04-24T12:08:06;22.00;38.20
22923;DHT22;11627;51.322;22.816;2023-04-24T12:10:33;22.20;41.40
22923;DHT22;11627;51.322;22.816;2023-04-24T12:13:01;22.20;41.00
22923;DHT22;11627;51.322;22.816;2023-04-24T12:15:28;22.10;39.50
22923;DHT22;11627;51.322;22.816;2023-04-24T12:17:55;22.10;43.10
22923;DHT22;11627;51.322;22.816;2023-04-24T12:20:32;22.20;43.70
22923;DHT22;11627;51.322;22.816;2023-04-24T12:23:02;22.30;47.30
22923;DHT22;11627;51.322;22.816;2023-04-24T12:25:29;22.40;47.10
22923;DHT22;11627;51.322;22.816;2023-04-24T12:28:10;22.20;45.90
22923;DHT22;11627;51.322;22.816;2023-04-24T12:31:03;22.20;40.10
22923;DHT22;11627;51.322;22.816;2023-04-24T12:33:34;22.20;46.00
22923;DHT22;11627;51.322;22.816;2023-04-24T12:36:01;22.10;46.70
22923;DHT22;11627;51.322;22.816;2023-04-24T12:38:29;22.20;48.00
22923;DHT22;11627;51.322;22.816;2023-04-24T12:41:06;22.30;51.90
22923;DHT22;11627;51.322;22.816;2023-04-24T12:43:34;22.30;47.20
22923;DHT22;11627;51.322;22.816;2023-04-24T12:46:02;22.40;46.60
22923;DHT22;11627;51.322;22.816;2023-04-24T12:48:28;22.50;46.90
22923;DHT22;11627;51.322;22.816;2023-04-24T12:50:54;22.70;48.00
22923;DHT22;11627;51.322;22.816;2023-04-24T12:53:22;22.90;45.30
22923;DHT22;11627;51.322;22.816;2023-04-24T12:55:48;23.00;47.70
22923;DHT22;11627;51.322;22.816;2023-04-24T12:58:21;22.80;36.10
22923;DHT22;11627;51.322;22.816;2023-04-24T13:00:47;22.80;41.80
22923;DHT22;11627;51.322;22.816;2023-04-24T13:03:13;22.80;43.40
22923;DHT22;11627;51.322;22.816;2023-04-24T13:05:40;22.80;42.10
22923;DHT22;11627;51.322;22.816;2023-04-24T13:08:06;22.80;42.80
22923;DHT22;11627;51.322;22.816;2023-04-24T13:10:37;22.70;43.30
22923;DHT22;11627;51.322;22.816;2023-04-24T13:13:04;22.80;42.20
22923;DHT22;11627;51.322;22.816;2023-04-24T13:15:31;23.00;40.60
22923;DHT22;11627;51.322;22.816;2023-04-24T13:17:56;23.20;43.20
22923;DHT22;11627;51.322;22.816;2023-04-24T13:20:22;23.40;43.70
22923;DHT22;11627;51.322;22.816;2023-04-24T13:22:48;23.40;37.10
22923;DHT22;11627;51.322;22.816;2023-04-24T13:25:14;23.30;34.80
22923;DHT22;11627;51.322;22.816;2023-04-24T13:27:42;23.20;36.00
22923;DHT22;11627;51.322;22.816;2023-04-24T13:30:10;23.40;35.60
22923;DHT22;11627;51.322;22.816;2023-04-24T13:32:36;23.50;30.40
22923;DHT22;11627;51.322;22.816;2023-04-24T13:35:02;23.30;35.30
22923;DHT22;11627;51.322;22.816;2023-04-24T13:37:28;23.40;36.00
22923;DHT22;11627;51.322;22.816;2023-04-24T13:39:54;23.30;25.70
22923;DHT22;11627;51.322;22.816;2023-04-24T13:42:20;23.40;24.70
22923;DHT22;11627;51.322;22.816;2023-04-24T13:44:45;23.30;22.30
22923;DHT22;11627;51.322;22.816;2023-04-24T13:47:13;23.20;21.60
22923;DHT22;11627;51.322;22.816;2023-04-24T13:49:40;22.90;18.50
22923;DHT22;11627;51.322;22.816;2023-04-24T13:52:06;22.90;16.80
22923;DHT22;11627;51.322;22.816;2023-04-24T13:54:33;22.90;15.30
22923;DHT22;11627;51.322;22.816;2023-04-24T13:56:59;22.90;15.70
22923;DHT22;11627;51.322;22.816;2023-04-24T13:59:27;22.90;18.90
22923;DHT22;11627;51.322;22.816;2023-04-24T14:01:52;22.90;18.70
22923;DHT22;11627;51.322;22.816;2023-04-24T14:04:18;23.10;18.30
22923;DHT22;11627;51.322;22.816;2023-04-24T14:06:46;23.20;19.20
22923;DHT22;11627;51.322;22.816;2023-04-24T14:09:12;23.30;17.90
22923;DHT22;11627;51.322;22.816;2023-04-24T14:11:38;23.60;22.10
22923;DHT22;11627;51.322;22.816;2023-04-24T14:14:04;23.80;21.90
22923;DHT22;11627;51.322;22.816;2023-04-24T14:16:31;23.90;22.10
22923;DHT22;11627;51.322;22.816;2023-04-24T14:18:57;24.10;21.40
22923;DHT22;11627;51.322;22.816;2023-04-24T14:21:24;24.20;20.80
22923;DHT22;11627;51.322;22.816;2023-04-24T14:23:52;24.10;20.80
22923;DHT22;11627;51.322;22.816;2023-04-24T14:26:19;24.00;20.40
22923;DHT22;11627;51.322;22.816;2023-04-24T14:28:46;24.00;22.50
22923;DHT22;11627;51.322;22.816;2023-04-24T14:31:12;23.60;21.40
22923;DHT22;11627;51.322;22.816;2023-04-24T14:33:37;23.50;26.50
22923;DHT22;11627;51.322;22.816;2023-04-24T14:36:06;23.50;28.00
22923;DHT22;11627;51.322;22.816;2023-04-24T14:38:32;23.50;26.50
22923;DHT22;11627;51.322;22.816;2023-04-24T14:41:02;23.50;27.90
22923;DHT22;11627;51.322;22.816;2023-04-24T14:43:34;23.50;26.10
22923;DHT22;11627;51.322;22.816;2023-04-24T14:46:02;23.50;23.90
22923;DHT22;11627;51.322;22.816;2023-04-24T14:48:28;23.60;24.20
22923;DHT22;11627;51.322;22.816;2023-04-24T14:50:54;23.50;24.80
22923;DHT22;11627;51.322;22.816;2023-04-24T14:53:20;23.60;21.90
22923;DHT22;11627;51.322;22.816;2023-04-24T14:55:49;23.50;23.10
22923;DHT22;11627;51.322;22.816;2023-04-24T14:58:14;24.00;20.90
22923;DHT22;11627;51.322;22.816;2023-04-24T15:00:41;25.10;19.10
22923;DHT22;11627;51.322;22.816;2023-04-24T15:03:07;26.90;18.50
22923;DHT22;11627;51.322;22.816;2023-04-24T15:05:33;28.60;19.00
22923;DHT22;11627;51.322;22.816;2023-04-24T15:07:59;29.40;20.10
22923;DHT22;11627;51.322;22.816;2023-04-24T15:10:25;30.50;16.80
22923;DHT22;11627;51.322;22.816;2023-04-24T15:12:51;31.60;21.80
22923;DHT22;11627;51.322;22.816;2023-04-24T15:15:19;32.30;18.60
22923;DHT22;11627;51.322;22.816;2023-04-24T15:17:45;32.50;21.40
22923;DHT22;11627;51.322;22.816;2023-04-24T15:20:11;33.20;20.80
22923;DHT22;11627;51.322;22.816;2023-04-24T15:22:36;33.50;21.60
22923;DHT22;11627;51.322;22.816;2023-04-24T15:25:02;33.80;10.90
22923;DHT22;11627;51.322;22.816;2023-04-24T15:27:39;34.10;7.30
22923;DHT22;11627;51.322;22.816;2023-04-24T15:30:10;33.80;5.50
22923;DHT22;11627;51.322;22.816;2023-04-24T15:32:38;34.10;7.00
22923;DHT22;11627;51.322;22.816;2023-04-24T15:35:04;33.10;4.10
22923;DHT22;11627;51.322;22.816;2023-04-24T15:37:31;33.90;3.80
22923;DHT22;11627;51.322;22.816;2023-04-24T15:39:56;34.70;4.30